sensor_id;sensor_type;location;lat;lon;timestamp;P1;durP1;ratioP1;P2;durP2;ratioP2
18206;SDS011;9229;52.354;20.886;2022-10-17T00:02:06;27.77;;;17.02;;
18206;SDS011;9229;52.354;20.886;2022-10-17T00:07:09;24.60;;;15.30;;
18206;SDS011;9229;52.354;20.886;2022-10-17T00:12:11;23.17;;;16.05;;
18206;SDS011;9229;52.354;20.886;2022-10-17T00:17:13;27.17;;;17.42;;
18206;SDS011;9229;52.354;20.886;2022-10-17T00:22:18;32.60;;;18.25;;
18206;SDS011;9229;52.354;20.886;2022-10-17T00:27:20;32.65;;;19.15;;
18206;SDS011;9229;52.354;20.886;2022-10-17T00:32:22;31.65;;;18.92;;
18206;SDS011;9229;52.354;20.886;2022-10-17T00:37:26;31.15;;;18.63;;
18206;SDS011;9229;52.354;20.886;2022-10-17T00:42:28;38.47;;;19.60;;
18206;SDS011;9229;52.354;20.886;2022-10-17T00:47:30;37.92;;;19.67;;
18206;SDS011;9229;52.354;20.886;2022-10-17T00:52:36;31.60;;;19.77;;
18206;SDS011;9229;52.354;20.886;2022-10-17T00:57:39;32.67;;;20.00;;
18206;SDS011;9229;52.354;20.886;2022-10-17T01:02:42;36.85;;;21.33;;
18206;SDS011;9229;52.354;20.886;2022-10-17T01:07:47;35.78;;;21.50;;
18206;SDS011;9229;52.354;20.886;2022-10-17T01:12:54;40.42;;;20.83;;
18206;SDS011;9229;52.354;20.886;2022-10-17T01:18:07;31.85;;;19.30;;
18206;SDS011;9229;52.354;20.886;2022-10-17T01:29:11;40.35;;;21.88;;
18206;SDS011;9229;52.354;20.886;2022-10-17T01:34:34;38.83;;;22.23;;
18206;SDS011;9229;52.354;20.886;2022-10-17T01:39:47;45.80;;;23.42;;
18206;SDS011;9229;52.354;20.886;2022-10-17T01:44:54;42.95;;;21.63;;
18206;SDS011;9229;52.354;20.886;2022-10-17T01:50:02;40.47;;;23.27;;
18206;SDS011;9229;52.354;20.886;2022-10-17T01:55:08;34.65;;;21.15;;
18206;SDS011;9229;52.354;20.886;2022-10-17T02:00:16;34.58;;;20.40;;
18206;SDS011;9229;52.354;20.886;2022-10-17T02:05:27;37.55;;;20.23;;
18206;SDS011;9229;52.354;20.886;2022-10-17T02:10:33;36.33;;;19.63;;
18206;SDS011;9229;52.354;20.886;2022-10-17T02:15:47;39.30;;;22.15;;
18206;SDS011;9229;52.354;20.886;2022-10-17T02:21:02;42.05;;;21.60;;
18206;SDS011;9229;52.354;20.886;2022-10-17T02:26:13;42.08;;;23.33;;
18206;SDS011;9229;52.354;20.886;2022-10-17T02:31:21;44.13;;;22.98;;
18206;SDS011;9229;52.354;20.886;2022-10-17T02:36:31;44.13;;;22.77;;
18206;SDS011;9229;52.354;20.886;2022-10-17T02:41:37;39.42;;;21.38;;
18206;SDS011;9229;52.354;20.886;2022-10-17T02:46:40;35.97;;;20.88;;
18206;SDS011;9229;52.354;20.886;2022-10-17T02:51:48;32.85;;;19.38;;
18206;SDS011;9229;52.354;20.886;2022-10-17T02:56:58;34.35;;;20.85;;
18206;SDS011;9229;52.354;20.886;2022-10-17T03:02:04;30.70;;;18.38;;
18206;SDS011;9229;52.354;20.886;2022-10-17T03:07:08;30.35;;;19.00;;
18206;SDS011;9229;52.354;20.886;2022-10-17T03:12:11;37.08;;;19.60;;
18206;SDS011;9229;52.354;20.886;2022-10-17T03:17:14;36.45;;;20.00;;
18206;SDS011;9229;52.354;20.886;2022-10-17T03:22:17;38.83;;;21.70;;
18206;SDS011;9229;52.354;20.886;2022-10-17T03:27:20;38.65;;;22.67;;
18206;SDS011;9229;52.354;20.886;2022-10-17T03:32:22;39.17;;;22.40;;
18206;SDS011;9229;52.354;20.886;2022-10-17T03:37:26;44.75;;;24.58;;
18206;SDS011;9229;52.354;20.886;2022-10-17T03:42:30;42.13;;;23.52;;
18206;SDS011;9229;52.354;20.886;2022-10-17T03:47:32;44.33;;;23.98;;
18206;SDS011;9229;52.354;20.886;2022-10-17T03:52:36;52.03;;;24.60;;
18206;SDS011;9229;52.354;20.886;2022-10-17T03:57:38;44.47;;;23.50;;
18206;SDS011;9229;52.354;20.886;2022-10-17T04:02:40;47.80;;;24.52;;
18206;SDS011;9229;52.354;20.886;2022-10-17T04:07:51;41.00;;;21.77;;
18206;SDS011;9229;52.354;20.886;2022-10-17T04:13:00;40.25;;;22.73;;
18206;SDS011;9229;52.354;20.886;2022-10-17T04:18:02;41.78;;;23.35;;
18206;SDS011;9229;52.354;20.886;2022-10-17T04:23:06;46.70;;;21.05;;
18206;SDS011;9229;52.354;20.886;2022-10-17T04:28:09;42.22;;;21.10;;
18206;SDS011;9229;52.354;20.886;2022-10-17T04:33:12;37.75;;;21.02;;
18206;SDS011;9229;52.354;20.886;2022-10-17T04:38:15;37.47;;;19.98;;
18206;SDS011;9229;52.354;20.886;2022-10-17T04:43:18;40.92;;;21.08;;
18206;SDS011;9229;52.354;20.886;2022-10-17T04:48:20;35.05;;;20.67;;
18206;SDS011;9229;52.354;20.886;2022-10-17T04:53:24;44.22;;;21.67;;
18206;SDS011;9229;52.354;20.886;2022-10-17T04:58:29;46.50;;;20.95;;
18206;SDS011;9229;52.354;20.886;2022-10-17T05:03:31;75.43;;;23.73;;
18206;SDS011;9229;52.354;20.886;2022-10-17T05:08:35;126.65;;;27.42;;
18206;SDS011;9229;52.354;20.886;2022-10-17T05:13:38;88.28;;;23.70;;
18206;SDS011;9229;52.354;20.886;2022-10-17T05:18:40;53.42;;;21.52;;
18206;SDS011;9229;52.354;20.886;2022-10-17T05:23:43;52.67;;;21.50;;
18206;SDS011;9229;52.354;20.886;2022-10-17T05:28:46;64.90;;;24.25;;
18206;SDS011;9229;52.354;20.886;2022-10-17T05:33:49;79.88;;;25.58;;
18206;SDS011;9229;52.354;20.886;2022-10-17T05:38:53;61.22;;;25.42;;
18206;SDS011;9229;52.354;20.886;2022-10-17T05:43:55;54.20;;;25.02;;
18206;SDS011;9229;52.354;20.886;2022-10-17T05:49:13;48.60;;;25.77;;
18206;SDS011;9229;52.354;20.886;2022-10-17T05:54:16;52.00;;;28.27;;
18206;SDS011;9229;52.354;20.886;2022-10-17T05:59:19;64.15;;;27.95;;
18206;SDS011;9229;52.354;20.886;2022-10-17T06:04:29;56.42;;;28.55;;
18206;SDS011;9229;52.354;20.886;2022-10-17T06:09:32;62.50;;;29.30;;
18206;SDS011;9229;52.354;20.886;2022-10-17T06:14:36;62.90;;;30.63;;
18206;SDS011;9229;52.354;20.886;2022-10-17T06:19:39;69.18;;;34.20;;
18206;SDS011;9229;52.354;20.886;2022-10-17T06:24:43;64.32;;;31.33;;
18206;SDS011;9229;52.354;20.886;2022-10-17T06:29:46;62.33;;;32.63;;
18206;SDS011;9229;52.354;20.886;2022-10-17T06:34:50;58.83;;;28.90;;
18206;SDS011;9229;52.354;20.886;2022-10-17T06:39:54;53.28;;;30.00;;
18206;SDS011;9229;52.354;20.886;2022-10-17T06:44:56;58.88;;;29.13;;
18206;SDS011;9229;52.354;20.886;2022-10-17T06:50:27;56.38;;;28.85;;
18206;SDS011;9229;52.354;20.886;2022-10-17T06:55:45;53.22;;;28.25;;
18206;SDS011;9229;52.354;20.886;2022-10-17T07:01:04;55.88;;;27.45;;
18206;SDS011;9229;52.354;20.886;2022-10-17T07:06:08;48.50;;;26.27;;
18206;SDS011;9229;52.354;20.886;2022-10-17T07:11:15;50.60;;;26.50;;
18206;SDS011;9229;52.354;20.886;2022-10-17T07:16:18;43.47;;;26.05;;
18206;SDS011;9229;52.354;20.886;2022-10-17T07:21:25;48.55;;;25.73;;
18206;SDS011;9229;52.354;20.886;2022-10-17T07:26:28;42.85;;;24.63;;
18206;SDS011;9229;52.354;20.886;2022-10-17T07:31:30;43.17;;;23.35;;
18206;SDS011;9229;52.354;20.886;2022-10-17T07:36:32;46.92;;;24.92;;
18206;SDS011;9229;52.354;20.886;2022-10-17T07:41:38;40.30;;;23.92;;
18206;SDS011;9229;52.354;20.886;2022-10-17T07:46:41;39.03;;;22.65;;
18206;SDS011;9229;52.354;20.886;2022-10-17T07:51:44;38.25;;;21.00;;
18206;SDS011;9229;52.354;20.886;2022-10-17T07:56:49;40.33;;;22.33;;
18206;SDS011;9229;52.354;20.886;2022-10-17T08:01:53;44.80;;;21.25;;
18206;SDS011;9229;52.354;20.886;2022-10-17T08:06:56;38.05;;;20.85;;
18206;SDS011;9229;52.354;20.886;2022-10-17T08:11:59;37.25;;;21.33;;
18206;SDS011;9229;52.354;20.886;2022-10-17T08:17:01;29.83;;;19.98;;
18206;SDS011;9229;52.354;20.886;2022-10-17T08:22:03;26.80;;;19.00;;
18206;SDS011;9229;52.354;20.886;2022-10-17T08:27:07;32.85;;;19.52;;
18206;SDS011;9229;52.354;20.886;2022-10-17T08:32:10;32.38;;;19.13;;
18206;SDS011;9229;52.354;20.886;2022-10-17T08:37:14;38.38;;;18.33;;
18206;SDS011;9229;52.354;20.886;2022-10-17T08:42:33;32.33;;;18.00;;
18206;SDS011;9229;52.354;20.886;2022-10-17T08:47:48;27.60;;;18.05;;
18206;SDS011;9229;52.354;20.886;2022-10-17T08:52:54;32.38;;;17.73;;
18206;SDS011;9229;52.354;20.886;2022-10-17T08:58:08;31.80;;;18.55;;
18206;SDS011;9229;52.354;20.886;2022-10-17T09:03:17;31.33;;;17.75;;
18206;SDS011;9229;52.354;20.886;2022-10-17T09:08:33;29.42;;;18.23;;
18206;SDS011;9229;52.354;20.886;2022-10-17T09:13:50;28.52;;;17.52;;
18206;SDS011;9229;52.354;20.886;2022-10-17T09:19:03;26.50;;;16.42;;
18206;SDS011;9229;52.354;20.886;2022-10-17T09:24:12;32.95;;;18.50;;
18206;SDS011;9229;52.354;20.886;2022-10-17T09:29:21;31.60;;;17.00;;
18206;SDS011;9229;52.354;20.886;2022-10-17T09:34:25;24.63;;;16.65;;
18206;SDS011;9229;52.354;20.886;2022-10-17T09:39:29;30.25;;;17.85;;
18206;SDS011;9229;52.354;20.886;2022-10-17T09:44:34;32.03;;;18.20;;
18206;SDS011;9229;52.354;20.886;2022-10-17T09:49:42;32.22;;;17.50;;
18206;SDS011;9229;52.354;20.886;2022-10-17T09:54:47;27.90;;;16.27;;
18206;SDS011;9229;52.354;20.886;2022-10-17T09:59:56;29.23;;;16.77;;
18206;SDS011;9229;52.354;20.886;2022-10-17T10:05:00;24.08;;;15.75;;
18206;SDS011;9229;52.354;20.886;2022-10-17T10:10:05;24.35;;;15.07;;
18206;SDS011;9229;52.354;20.886;2022-10-17T10:15:28;25.40;;;16.67;;
18206;SDS011;9229;52.354;20.886;2022-10-17T10:20:33;27.15;;;14.45;;
18206;SDS011;9229;52.354;20.886;2022-10-17T10:25:37;23.13;;;15.85;;
18206;SDS011;9229;52.354;20.886;2022-10-17T10:30:50;27.30;;;16.13;;
18206;SDS011;9229;52.354;20.886;2022-10-17T10:35:55;25.23;;;15.73;;
18206;SDS011;9229;52.354;20.886;2022-10-17T10:41:00;22.10;;;14.52;;
18206;SDS011;9229;52.354;20.886;2022-10-17T10:46:15;24.88;;;15.50;;
18206;SDS011;9229;52.354;20.886;2022-10-17T10:51:21;24.70;;;15.10;;
18206;SDS011;9229;52.354;20.886;2022-10-17T10:56:28;18.83;;;13.80;;
18206;SDS011;9229;52.354;20.886;2022-10-17T11:01:37;25.77;;;14.70;;
18206;SDS011;9229;52.354;20.886;2022-10-17T11:06:46;21.70;;;14.48;;
18206;SDS011;9229;52.354;20.886;2022-10-17T11:11:52;25.85;;;14.25;;
18206;SDS011;9229;52.354;20.886;2022-10-17T11:17:03;29.65;;;14.85;;
18206;SDS011;9229;52.354;20.886;2022-10-17T11:22:14;18.35;;;13.98;;
18206;SDS011;9229;52.354;20.886;2022-10-17T11:27:19;21.13;;;13.60;;
18206;SDS011;9229;52.354;20.886;2022-10-17T11:32:24;18.73;;;12.23;;
18206;SDS011;9229;52.354;20.886;2022-10-17T11:37:30;20.23;;;12.20;;
18206;SDS011;9229;52.354;20.886;2022-10-17T11:42:37;18.05;;;11.93;;
18206;SDS011;9229;52.354;20.886;2022-10-17T11:47:44;20.05;;;12.70;;
18206;SDS011;9229;52.354;20.886;2022-10-17T11:52:50;22.08;;;12.73;;
18206;SDS011;9229;52.354;20.886;2022-10-17T11:58:15;21.02;;;13.05;;
18206;SDS011;9229;52.354;20.886;2022-10-17T12:03:31;19.20;;;12.07;;
18206;SDS011;9229;52.354;20.886;2022-10-17T12:08:52;17.38;;;12.32;;
18206;SDS011;9229;52.354;20.886;2022-10-17T12:14:09;27.73;;;11.43;;
18206;SDS011;9229;52.354;20.886;2022-10-17T12:19:37;17.38;;;12.13;;
18206;SDS011;9229;52.354;20.886;2022-10-17T12:24:39;18.38;;;12.10;;
18206;SDS011;9229;52.354;20.886;2022-10-17T12:29:44;19.80;;;13.45;;
18206;SDS011;9229;52.354;20.886;2022-10-17T12:34:50;21.27;;;12.90;;
18206;SDS011;9229;52.354;20.886;2022-10-17T12:39:53;26.00;;;12.88;;
18206;SDS011;9229;52.354;20.886;2022-10-17T12:44:56;17.15;;;12.13;;
18206;SDS011;9229;52.354;20.886;2022-10-17T12:49:58;25.15;;;12.93;;
18206;SDS011;9229;52.354;20.886;2022-10-17T12:55:04;24.05;;;12.77;;
18206;SDS011;9229;52.354;20.886;2022-10-17T13:00:15;23.50;;;13.95;;
18206;SDS011;9229;52.354;20.886;2022-10-17T13:05:24;20.65;;;12.85;;
18206;SDS011;9229;52.354;20.886;2022-10-17T13:10:29;20.40;;;12.30;;
18206;SDS011;9229;52.354;20.886;2022-10-17T13:15:37;19.65;;;12.82;;
18206;SDS011;9229;52.354;20.886;2022-10-17T13:20:38;25.80;;;12.50;;
18206;SDS011;9229;52.354;20.886;2022-10-17T13:25:40;19.30;;;13.02;;
18206;SDS011;9229;52.354;20.886;2022-10-17T13:30:45;18.60;;;13.23;;
18206;SDS011;9229;52.354;20.886;2022-10-17T13:35:47;18.80;;;12.90;;
18206;SDS011;9229;52.354;20.886;2022-10-17T13:40:49;17.33;;;12.73;;
18206;SDS011;9229;52.354;20.886;2022-10-17T13:45:53;20.67;;;12.95;;
18206;SDS011;9229;52.354;20.886;2022-10-17T13:50:59;21.60;;;13.25;;
18206;SDS011;9229;52.354;20.886;2022-10-17T13:56:03;21.08;;;13.35;;
18206;SDS011;9229;52.354;20.886;2022-10-17T14:01:08;17.85;;;12.52;;
18206;SDS011;9229;52.354;20.886;2022-10-17T14:06:12;20.30;;;13.35;;
18206;SDS011;9229;52.354;20.886;2022-10-17T14:11:21;21.25;;;13.45;;
18206;SDS011;9229;52.354;20.886;2022-10-17T14:16:37;21.60;;;12.93;;
18206;SDS011;9229;52.354;20.886;2022-10-17T14:21:41;20.67;;;13.32;;
18206;SDS011;9229;52.354;20.886;2022-10-17T14:26:49;21.17;;;14.00;;
18206;SDS011;9229;52.354;20.886;2022-10-17T14:31:58;20.70;;;13.38;;
18206;SDS011;9229;52.354;20.886;2022-10-17T14:37:08;18.00;;;12.75;;
18206;SDS011;9229;52.354;20.886;2022-10-17T14:42:16;24.05;;;13.40;;
18206;SDS011;9229;52.354;20.886;2022-10-17T14:47:22;20.50;;;13.18;;
18206;SDS011;9229;52.354;20.886;2022-10-17T14:52:28;21.98;;;13.60;;
18206;SDS011;9229;52.354;20.886;2022-10-17T14:57:39;24.20;;;13.85;;
18206;SDS011;9229;52.354;20.886;2022-10-17T15:02:45;22.85;;;13.88;;
18206;SDS011;9229;52.354;20.886;2022-10-17T15:07:48;24.40;;;14.43;;
18206;SDS011;9229;52.354;20.886;2022-10-17T15:12:50;24.40;;;14.20;;
18206;SDS011;9229;52.354;20.886;2022-10-17T15:17:53;21.13;;;14.38;;
18206;SDS011;9229;52.354;20.886;2022-10-17T15:22:56;28.33;;;15.52;;
18206;SDS011;9229;52.354;20.886;2022-10-17T15:27:58;28.83;;;15.30;;
18206;SDS011;9229;52.354;20.886;2022-10-17T15:33:02;23.05;;;14.60;;
18206;SDS011;9229;52.354;20.886;2022-10-17T15:38:05;25.63;;;14.20;;
18206;SDS011;9229;52.354;20.886;2022-10-17T15:43:07;25.15;;;15.82;;
18206;SDS011;9229;52.354;20.886;2022-10-17T15:48:14;31.92;;;14.73;;
18206;SDS011;9229;52.354;20.886;2022-10-17T15:53:19;33.33;;;15.85;;
18206;SDS011;9229;52.354;20.886;2022-10-17T15:58:22;31.88;;;16.05;;
18206;SDS011;9229;52.354;20.886;2022-10-17T16:03:31;33.45;;;15.65;;
18206;SDS011;9229;52.354;20.886;2022-10-17T16:08:33;45.20;;;16.25;;
18206;SDS011;9229;52.354;20.886;2022-10-17T16:13:35;31.75;;;16.80;;
18206;SDS011;9229;52.354;20.886;2022-10-17T16:18:39;29.38;;;16.35;;
18206;SDS011;9229;52.354;20.886;2022-10-17T16:23:41;26.95;;;15.95;;
18206;SDS011;9229;52.354;20.886;2022-10-17T16:28:43;28.42;;;17.60;;
18206;SDS011;9229;52.354;20.886;2022-10-17T16:33:49;35.53;;;16.73;;
18206;SDS011;9229;52.354;20.886;2022-10-17T16:38:54;34.75;;;17.58;;
18206;SDS011;9229;52.354;20.886;2022-10-17T16:43:57;30.50;;;16.45;;
18206;SDS011;9229;52.354;20.886;2022-10-17T16:49:01;39.20;;;17.60;;
18206;SDS011;9229;52.354;20.886;2022-10-17T16:54:04;41.30;;;17.85;;
18206;SDS011;9229;52.354;20.886;2022-10-17T16:59:06;39.60;;;18.80;;
18206;SDS011;9229;52.354;20.886;2022-10-17T17:04:12;42.47;;;19.90;;
18206;SDS011;9229;52.354;20.886;2022-10-17T17:09:14;39.70;;;20.48;;
18206;SDS011;9229;52.354;20.886;2022-10-17T17:14:16;38.13;;;22.15;;
18206;SDS011;9229;52.354;20.886;2022-10-17T17:19:19;44.65;;;21.73;;
18206;SDS011;9229;52.354;20.886;2022-10-17T17:24:21;42.20;;;22.52;;
18206;SDS011;9229;52.354;20.886;2022-10-17T17:29:23;39.55;;;22.42;;
18206;SDS011;9229;52.354;20.886;2022-10-17T17:34:26;40.55;;;21.38;;
18206;SDS011;9229;52.354;20.886;2022-10-17T17:39:28;34.75;;;21.38;;
18206;SDS011;9229;52.354;20.886;2022-10-17T17:44:30;34.75;;;20.25;;
18206;SDS011;9229;52.354;20.886;2022-10-17T17:49:33;39.60;;;20.48;;
18206;SDS011;9229;52.354;20.886;2022-10-17T17:54:35;35.38;;;19.25;;
18206;SDS011;9229;52.354;20.886;2022-10-17T17:59:37;38.70;;;19.13;;
18206;SDS011;9229;52.354;20.886;2022-10-17T18:04:41;36.00;;;19.48;;
18206;SDS011;9229;52.354;20.886;2022-10-17T18:09:43;34.58;;;19.55;;
18206;SDS011;9229;52.354;20.886;2022-10-17T18:14:46;40.08;;;20.23;;
18206;SDS011;9229;52.354;20.886;2022-10-17T18:19:52;43.15;;;20.83;;
18206;SDS011;9229;52.354;20.886;2022-10-17T18:24:54;37.08;;;20.65;;
18206;SDS011;9229;52.354;20.886;2022-10-17T18:29:56;33.42;;;19.50;;
18206;SDS011;9229;52.354;20.886;2022-10-17T18:35:06;37.53;;;19.25;;
18206;SDS011;9229;52.354;20.886;2022-10-17T18:40:08;34.42;;;18.75;;
18206;SDS011;9229;52.354;20.886;2022-10-17T18:45:11;30.80;;;19.13;;
18206;SDS011;9229;52.354;20.886;2022-10-17T18:50:15;39.60;;;20.15;;
18206;SDS011;9229;52.354;20.886;2022-10-17T18:55:17;37.30;;;20.23;;
18206;SDS011;9229;52.354;20.886;2022-10-17T19:00:19;37.72;;;19.33;;
18206;SDS011;9229;52.354;20.886;2022-10-17T19:05:23;32.63;;;19.10;;
18206;SDS011;9229;52.354;20.886;2022-10-17T19:10:25;35.50;;;20.42;;
18206;SDS011;9229;52.354;20.886;2022-10-17T19:15:27;35.85;;;19.38;;
18206;SDS011;9229;52.354;20.886;2022-10-17T19:20:31;32.38;;;18.95;;
18206;SDS011;9229;52.354;20.886;2022-10-17T19:25:33;29.05;;;17.67;;
18206;SDS011;9229;52.354;20.886;2022-10-17T19:30:34;30.10;;;18.48;;
18206;SDS011;9229;52.354;20.886;2022-10-17T19:35:38;28.75;;;17.52;;
18206;SDS011;9229;52.354;20.886;2022-10-17T19:40:40;29.88;;;17.77;;
18206;SDS011;9229;52.354;20.886;2022-10-17T19:45:42;29.73;;;17.77;;
18206;SDS011;9229;52.354;20.886;2022-10-17T19:50:45;29.48;;;17.60;;
18206;SDS011;9229;52.354;20.886;2022-10-17T19:55:48;28.35;;;17.15;;
18206;SDS011;9229;52.354;20.886;2022-10-17T20:00:52;35.83;;;18.27;;
18206;SDS011;9229;52.354;20.886;2022-10-17T20:05:57;27.10;;;17.25;;
18206;SDS011;9229;52.354;20.886;2022-10-17T20:11:00;32.03;;;17.05;;
18206;SDS011;9229;52.354;20.886;2022-10-17T20:16:03;27.92;;;17.38;;
18206;SDS011;9229;52.354;20.886;2022-10-17T20:21:09;28.25;;;16.98;;
18206;SDS011;9229;52.354;20.886;2022-10-17T20:26:13;26.63;;;16.05;;
18206;SDS011;9229;52.354;20.886;2022-10-17T20:31:16;29.73;;;17.55;;
18206;SDS011;9229;52.354;20.886;2022-10-17T20:36:20;31.30;;;17.73;;
18206;SDS011;9229;52.354;20.886;2022-10-17T20:41:23;36.58;;;17.50;;
18206;SDS011;9229;52.354;20.886;2022-10-17T20:46:25;30.08;;;17.27;;
18206;SDS011;9229;52.354;20.886;2022-10-17T20:51:28;31.10;;;17.25;;
18206;SDS011;9229;52.354;20.886;2022-10-17T20:56:30;28.45;;;16.95;;
18206;SDS011;9229;52.354;20.886;2022-10-17T21:01:34;31.98;;;18.23;;
18206;SDS011;9229;52.354;20.886;2022-10-17T21:06:37;30.55;;;17.45;;
18206;SDS011;9229;52.354;20.886;2022-10-17T21:11:39;32.88;;;18.38;;
18206;SDS011;9229;52.354;20.886;2022-10-17T21:16:42;31.20;;;17.85;;
18206;SDS011;9229;52.354;20.886;2022-10-17T21:21:45;34.83;;;19.00;;
18206;SDS011;9229;52.354;20.886;2022-10-17T21:26:48;32.50;;;18.42;;
18206;SDS011;9229;52.354;20.886;2022-10-17T21:31:54;34.95;;;18.17;;
18206;SDS011;9229;52.354;20.886;2022-10-17T21:36:57;33.65;;;18.88;;
18206;SDS011;9229;52.354;20.886;2022-10-17T21:41:59;35.42;;;18.15;;
18206;SDS011;9229;52.354;20.886;2022-10-17T21:47:01;36.70;;;19.10;;
18206;SDS011;9229;52.354;20.886;2022-10-17T21:52:05;32.72;;;18.85;;
18206;SDS011;9229;52.354;20.886;2022-10-17T21:57:06;37.55;;;19.92;;
18206;SDS011;9229;52.354;20.886;2022-10-17T22:02:11;33.67;;;18.92;;
18206;SDS011;9229;52.354;20.886;2022-10-17T22:07:17;32.25;;;19.05;;
18206;SDS011;9229;52.354;20.886;2022-10-17T22:12:19;33.35;;;18.95;;
18206;SDS011;9229;52.354;20.886;2022-10-17T22:17:21;33.55;;;18.23;;
18206;SDS011;9229;52.354;20.886;2022-10-17T22:22:24;31.52;;;17.77;;
18206;SDS011;9229;52.354;20.886;2022-10-17T22:27:26;33.00;;;18.50;;
18206;SDS011;9229;52.354;20.886;2022-10-17T22:32:27;34.28;;;17.80;;
18206;SDS011;9229;52.354;20.886;2022-10-17T22:37:31;34.40;;;17.63;;
18206;SDS011;9229;52.354;20.886;2022-10-17T22:42:33;30.45;;;16.77;;
18206;SDS011;9229;52.354;20.886;2022-10-17T22:47:35;26.55;;;16.63;;
18206;SDS011;9229;52.354;20.886;2022-10-17T22:52:38;29.38;;;17.52;;
18206;SDS011;9229;52.354;20.886;2022-10-17T22:57:40;33.45;;;16.98;;
18206;SDS011;9229;52.354;20.886;2022-10-17T23:02:42;25.73;;;16.02;;
18206;SDS011;9229;52.354;20.886;2022-10-17T23:07:46;32.40;;;16.88;;
18206;SDS011;9229;52.354;20.886;2022-10-17T23:12:47;23.85;;;15.73;;
18206;SDS011;9229;52.354;20.886;2022-10-17T23:17:49;27.45;;;15.38;;
18206;SDS011;9229;52.354;20.886;2022-10-17T23:22:53;26.73;;;15.77;;
18206;SDS011;9229;52.354;20.886;2022-10-17T23:27:55;23.73;;;14.20;;
18206;SDS011;9229;52.354;20.886;2022-10-17T23:32:56;26.55;;;14.90;;
18206;SDS011;9229;52.354;20.886;2022-10-17T23:38:00;24.70;;;13.75;;
18206;SDS011;9229;52.354;20.886;2022-10-17T23:43:02;22.02;;;13.15;;
18206;SDS011;9229;52.354;20.886;2022-10-17T23:48:04;23.70;;;12.50;;
18206;SDS011;9229;52.354;20.886;2022-10-17T23:53:07;21.90;;;13.40;;
18206;SDS011;9229;52.354;20.886;2022-10-17T23:58:09;21.40;;;13.20;;
